createdAt,value
2022-09-16T00:01:50.233Z,13.90
2022-09-16T00:04:51.135Z,13.80
2022-09-16T00:07:53.775Z,13.90
2022-09-16T00:11:00.232Z,13.90
2022-09-16T00:14:02.145Z,13.80
2022-09-16T00:17:03.604Z,13.80
2022-09-16T00:20:06.285Z,13.90
2022-09-16T00:23:07.191Z,13.90
2022-09-16T00:26:07.988Z,13.90
2022-09-16T00:29:10.625Z,13.90
2022-09-16T00:32:11.493Z,13.90
2022-09-16T00:35:12.371Z,13.90
2022-09-16T00:38:13.977Z,13.80
2022-09-16T00:41:24.191Z,13.80
2022-09-16T00:45:04.054Z,13.90
2022-09-16T00:48:19.152Z,13.90
2022-09-16T00:51:22.224Z,13.90
2022-09-16T00:54:24.732Z,13.90
2022-09-16T00:57:26.053Z,13.90
2022-09-16T01:00:27.237Z,13.90
2022-09-16T01:03:31.512Z,13.90
2022-09-16T01:06:39.800Z,13.90
2022-09-16T01:09:40.988Z,13.90
2022-09-16T01:12:47.753Z,13.80
2022-09-16T01:16:12.560Z,13.80
2022-09-16T01:20:04.817Z,13.90
2022-09-16T01:23:38.405Z,13.90
2022-09-16T01:26:59.503Z,13.90
2022-09-16T01:30:21.215Z,13.90
2022-09-16T01:33:43.771Z,13.90
2022-09-16T01:37:11.677Z,13.90
2022-09-16T01:40:38.955Z,13.90
2022-09-16T01:44:21.442Z,13.90
2022-09-16T01:47:58.214Z,13.90
2022-09-16T01:51:37.606Z,13.90
2022-09-16T01:54:59.775Z,13.90
2022-09-16T01:58:15.390Z,13.90
2022-09-16T02:01:39.466Z,13.90
2022-09-16T02:04:50.633Z,13.90
2022-09-16T02:07:59.053Z,13.90
2022-09-16T02:11:05.017Z,13.90
2022-09-16T02:14:15.005Z,13.80
2022-09-16T02:17:22.439Z,13.80
2022-09-16T02:20:27.589Z,13.80
2022-09-16T02:23:40.010Z,13.80
2022-09-16T02:26:46.999Z,13.70
2022-09-16T02:30:03.175Z,13.70
2022-09-16T02:33:09.827Z,13.60
2022-09-16T02:36:15.821Z,13.60
2022-09-16T02:39:28.576Z,13.60
2022-09-16T02:42:30.980Z,13.50
2022-09-16T02:46:00.375Z,13.50
2022-09-16T02:49:35.025Z,13.50
2022-09-16T02:52:43.031Z,13.40
2022-09-16T02:56:21.998Z,13.40
2022-09-16T02:59:23.970Z,13.40
2022-09-16T03:02:26.237Z,13.40
2022-09-16T03:05:30.956Z,13.30
2022-09-16T03:08:33.354Z,13.30
2022-09-16T03:12:22.667Z,13.30
2022-09-16T03:16:07.935Z,13.20
2022-09-16T03:19:55.805Z,13.10
2022-09-16T03:23:16.176Z,13.10
2022-09-16T03:26:48.218Z,13.10
2022-09-16T03:30:02.061Z,13.00
2022-09-16T03:33:25.143Z,13.00
2022-09-16T03:36:34.595Z,13.00
2022-09-16T03:39:36.903Z,13.00
2022-09-16T03:42:40.717Z,13.00
2022-09-16T03:45:42.923Z,13.00
2022-09-16T03:48:43.949Z,12.90
2022-09-16T03:51:44.699Z,12.90
2022-09-16T03:54:46.271Z,13.00
2022-09-16T03:57:47.508Z,12.90
2022-09-16T04:00:51.142Z,12.90
2022-09-16T04:03:52.614Z,12.90
2022-09-16T04:06:54.080Z,12.90
2022-09-16T04:09:55.095Z,12.90
2022-09-16T04:12:58.815Z,12.90
2022-09-16T04:16:00.517Z,12.90
2022-09-16T04:19:01.224Z,12.90
2022-09-16T04:22:02.100Z,12.90
2022-09-16T04:25:03.193Z,12.90
2022-09-16T04:28:04.485Z,12.90
2022-09-16T04:31:10.165Z,12.90
2022-09-16T04:34:14.151Z,12.80
2022-09-16T04:37:14.802Z,12.90
2022-09-16T04:40:17.289Z,12.90
2022-09-16T04:43:18.287Z,12.90
2022-09-16T04:46:20.238Z,12.90
2022-09-16T04:49:21.110Z,12.90
2022-09-16T04:52:21.917Z,12.90
2022-09-16T04:55:24.246Z,12.90
2022-09-16T04:58:25.319Z,12.90
2022-09-16T05:01:37.541Z,12.90
2022-09-16T05:04:38.443Z,12.90
2022-09-16T05:07:39.354Z,13.00
2022-09-16T05:10:40.446Z,13.00
2022-09-16T05:13:41.935Z,13.00
2022-09-16T05:16:43.452Z,13.10
2022-09-16T05:19:44.499Z,13.00
2022-09-16T05:22:45.318Z,13.00
2022-09-16T05:25:46.080Z,13.00
2022-09-16T05:28:48.128Z,13.00
2022-09-16T05:31:49.182Z,13.10
2022-09-16T05:34:53.002Z,13.10
2022-09-16T05:37:53.888Z,13.20
2022-09-16T05:41:00.030Z,13.10
2022-09-16T05:44:02.166Z,13.10
2022-09-16T05:47:03.443Z,13.10
2022-09-16T05:50:05.116Z,13.20
2022-09-16T05:53:05.806Z,13.20
2022-09-16T05:56:11.795Z,13.30
2022-09-16T05:59:14.875Z,13.40
2022-09-16T06:02:15.776Z,13.50
2022-09-16T06:05:16.864Z,13.50
2022-09-16T06:08:18.151Z,13.50
2022-09-16T06:11:20.136Z,13.60
2022-09-16T06:14:22.783Z,13.70
2022-09-16T06:17:23.493Z,13.70
2022-09-16T06:20:24.886Z,13.80
2022-09-16T06:23:25.888Z,13.80
2022-09-16T06:26:28.570Z,13.80
2022-09-16T06:29:29.706Z,13.80
2022-09-16T06:32:33.832Z,13.90
2022-09-16T06:35:35.894Z,14.10
2022-09-16T06:38:36.944Z,14.30
2022-09-16T06:41:37.839Z,14.50
2022-09-16T06:44:38.788Z,14.70
2022-09-16T06:47:39.681Z,14.70
2022-09-16T06:50:40.704Z,14.80
2022-09-16T06:53:41.910Z,14.80
2022-09-16T06:56:43.185Z,14.70
2022-09-16T06:59:44.068Z,14.70
2022-09-16T07:02:44.898Z,14.70
2022-09-16T07:06:03.297Z,14.50
2022-09-16T07:09:04.352Z,14.50
2022-09-16T07:12:06.522Z,14.50
2022-09-16T07:15:09.019Z,14.60
2022-09-16T07:18:09.920Z,14.70
2022-09-16T07:21:17.402Z,14.80
2022-09-16T07:24:18.788Z,14.90
2022-09-16T07:27:19.824Z,14.80
2022-09-16T07:30:20.727Z,14.80
2022-09-16T07:33:21.516Z,14.90
2022-09-16T07:36:27.805Z,15.00
2022-09-16T07:39:28.919Z,15.10
2022-09-16T07:42:30.330Z,15.20
2022-09-16T07:45:31.801Z,15.20
2022-09-16T07:48:35.832Z,15.20
2022-09-16T07:51:37.176Z,15.20
2022-09-16T07:54:38.143Z,15.20
2022-09-16T07:57:38.924Z,15.20
2022-09-16T08:00:39.780Z,15.10
2022-09-16T08:03:41.521Z,15.10
2022-09-16T08:06:42.649Z,15.20
2022-09-16T08:09:48.555Z,15.20
2022-09-16T08:12:51.708Z,15.20
2022-09-16T08:15:54.631Z,15.30
2022-09-16T08:18:58.365Z,15.40
2022-09-16T08:21:59.099Z,15.50
2022-09-16T08:24:59.794Z,15.50
2022-09-16T08:28:00.570Z,15.60
2022-09-16T08:31:02.567Z,15.80
2022-09-16T08:34:04.118Z,15.80
2022-09-16T08:37:05.212Z,16.00
2022-09-16T08:40:07.288Z,16.00
2022-09-16T08:43:24.865Z,16.30
2022-09-16T08:46:31.949Z,16.80
2022-09-16T08:49:35.751Z,16.90
2022-09-16T08:52:41.124Z,17.30
2022-09-16T08:55:48.962Z,17.20
2022-09-16T08:58:58.322Z,17.10
2022-09-16T09:02:34.969Z,17.00
2022-09-16T09:05:54.114Z,17.60
2022-09-16T09:09:28.254Z,17.50
2022-09-16T09:12:50.335Z,17.30
2022-09-16T09:15:59.089Z,17.80
2022-09-16T09:19:10.093Z,18.10
2022-09-16T09:22:57.539Z,17.80
2022-09-16T09:26:56.492Z,18.20
2022-09-16T09:30:21.966Z,17.90
2022-09-16T09:33:47.062Z,17.90
2022-09-16T09:37:37.722Z,17.70
2022-09-16T09:41:01.031Z,17.90
2022-09-16T09:44:23.418Z,17.90
2022-09-16T09:47:43.170Z,18.30
2022-09-16T09:50:48.574Z,20.10
2022-09-16T09:54:00.078Z,19.40
2022-09-16T09:57:14.699Z,19.50
2022-09-16T10:00:22.152Z,19.10
2022-09-16T10:03:26.340Z,20.30
2022-09-16T10:06:34.536Z,20.10
2022-09-16T10:09:38.319Z,20.10
2022-09-16T10:12:39.191Z,19.10
2022-09-16T10:15:40.448Z,19.10
2022-09-16T10:18:41.420Z,18.80
2022-09-16T10:21:55.806Z,18.50
2022-09-16T10:25:04.020Z,17.60
2022-09-16T10:28:25.944Z,17.50
2022-09-16T10:31:37.893Z,17.40
2022-09-16T10:34:43.087Z,17.10
2022-09-16T10:38:04.241Z,16.90
2022-09-16T10:41:21.243Z,16.70
2022-09-16T10:44:32.284Z,16.70
2022-09-16T10:47:36.439Z,16.50
2022-09-16T10:50:37.835Z,16.50
2022-09-16T10:53:43.909Z,16.60
2022-09-16T10:56:52.231Z,16.60
2022-09-16T11:00:19.054Z,15.60
2022-09-16T11:04:01.257Z,15.10
2022-09-16T11:07:36.203Z,14.80
2022-09-16T11:11:00.135Z,14.70
2022-09-16T11:14:20.987Z,14.50
2022-09-16T11:18:05.916Z,14.50
2022-09-16T11:21:47.876Z,14.60
2022-09-16T11:25:38.284Z,15.40
2022-09-16T11:29:12.979Z,15.90
2022-09-16T11:32:47.773Z,15.90
2022-09-16T11:36:07.400Z,15.50
2022-09-16T11:40:06.108Z,15.20
2022-09-16T11:43:15.835Z,15.10
2022-09-16T11:46:20.616Z,15.10
2022-09-16T11:49:53.598Z,15.00
2022-09-16T11:53:29.062Z,14.90
2022-09-16T11:56:48.986Z,14.80
2022-09-16T11:59:58.499Z,14.90
2022-09-16T12:03:12.837Z,14.80
2022-09-16T12:06:22.780Z,14.80
2022-09-16T12:09:54.409Z,14.70
2022-09-16T12:13:08.469Z,14.50
2022-09-16T12:16:42.686Z,14.30
2022-09-16T12:20:01.202Z,14.40
2022-09-16T12:23:20.666Z,14.50
2022-09-16T12:26:40.666Z,14.40
2022-09-16T12:30:02.748Z,14.30
2022-09-16T12:33:17.306Z,14.20
2022-09-16T12:36:27.363Z,14.20
2022-09-16T12:39:28.948Z,14.20
2022-09-16T12:43:00.963Z,14.10
2022-09-16T12:46:47.880Z,14.00
2022-09-16T12:50:21.484Z,13.90
2022-09-16T12:53:34.276Z,13.80
2022-09-16T12:57:07.491Z,13.80
2022-09-16T13:00:21.689Z,13.70
2022-09-16T13:03:28.283Z,13.50
2022-09-16T13:06:39.760Z,13.40
2022-09-16T13:09:41.752Z,13.50
2022-09-16T13:12:51.230Z,13.60
2022-09-16T13:16:02.396Z,13.70
2022-09-16T13:19:06.573Z,13.70
2022-09-16T13:22:47.392Z,13.70
2022-09-16T13:25:59.918Z,13.80
2022-09-16T13:29:00.794Z,13.90
2022-09-16T13:32:02.211Z,13.90
2022-09-16T13:35:34.850Z,13.80
2022-09-16T13:38:40.366Z,13.70
2022-09-16T13:41:48.105Z,13.60
2022-09-16T13:44:48.810Z,13.70
2022-09-16T13:47:51.338Z,13.80
2022-09-16T13:51:01.184Z,14.00
2022-09-16T13:54:04.754Z,14.10
2022-09-16T13:57:24.776Z,14.20
2022-09-16T14:00:47.337Z,14.10
2022-09-16T14:03:57.101Z,14.20
2022-09-16T14:07:07.217Z,14.20
2022-09-16T14:10:26.470Z,14.20
2022-09-16T14:13:39.705Z,14.10
2022-09-16T14:16:44.558Z,14.00
2022-09-16T14:19:48.500Z,14.00
2022-09-16T14:23:01.000Z,14.00
2022-09-16T14:26:15.606Z,13.90
2022-09-16T14:29:16.353Z,13.90
2022-09-16T14:32:17.055Z,13.80
2022-09-16T14:35:24.798Z,13.80
2022-09-16T14:38:46.085Z,13.80
2022-09-16T14:41:59.137Z,13.90
2022-09-16T14:45:00.858Z,13.80
2022-09-16T14:48:08.206Z,13.80
2022-09-16T14:51:23.739Z,13.70
2022-09-16T14:54:27.628Z,13.80
2022-09-16T14:57:33.452Z,13.90
2022-09-16T15:00:45.588Z,14.20
2022-09-16T15:04:05.793Z,14.60
2022-09-16T15:07:14.918Z,15.00
2022-09-16T15:10:39.775Z,15.10
2022-09-16T15:13:46.256Z,14.80
2022-09-16T15:16:53.409Z,14.70
2022-09-16T15:19:58.788Z,14.50
2022-09-16T15:23:02.917Z,14.50
2022-09-16T15:26:40.939Z,14.50
2022-09-16T15:29:53.208Z,14.50
2022-09-16T15:32:54.117Z,14.30
2022-09-16T15:35:55.087Z,14.10
2022-09-16T15:38:58.856Z,14.00
2022-09-16T15:42:20.985Z,14.10
2022-09-16T15:45:21.862Z,14.10
2022-09-16T15:48:23.263Z,14.00
2022-09-16T15:51:49.435Z,14.00
2022-09-16T15:54:57.233Z,13.90
2022-09-16T15:58:25.097Z,13.80
2022-09-16T16:01:49.796Z,13.80
2022-09-16T16:04:54.326Z,13.80
2022-09-16T16:08:05.011Z,13.80
2022-09-16T16:11:18.590Z,13.70
2022-09-16T16:14:20.373Z,13.60
2022-09-16T16:17:23.887Z,13.50
2022-09-16T16:20:24.742Z,13.50
2022-09-16T16:23:28.761Z,13.40
2022-09-16T16:26:29.776Z,13.30
2022-09-16T16:29:31.122Z,13.30
2022-09-16T16:32:32.128Z,13.20
2022-09-16T16:35:33.535Z,13.10
2022-09-16T16:38:34.923Z,13.00
2022-09-16T16:41:35.709Z,12.90
2022-09-16T16:44:36.544Z,12.90
2022-09-16T16:47:37.578Z,12.80
2022-09-16T16:50:38.521Z,12.70
2022-09-16T16:53:39.930Z,12.70
2022-09-16T16:56:41.095Z,12.60
2022-09-16T16:59:41.945Z,12.60
2022-09-16T17:02:43.607Z,12.50
2022-09-16T17:05:44.782Z,12.60
2022-09-16T17:08:45.518Z,12.50
2022-09-16T17:11:56.926Z,12.50
2022-09-16T17:14:57.811Z,12.40
2022-09-16T17:17:58.593Z,12.40
2022-09-16T17:21:12.601Z,12.40
2022-09-16T17:24:14.824Z,12.30
2022-09-16T17:27:19.825Z,12.30
2022-09-16T17:30:20.844Z,12.30
2022-09-16T17:33:22.119Z,12.30
2022-09-16T17:36:24.555Z,12.20
2022-09-16T17:39:26.547Z,12.20
2022-09-16T17:42:27.662Z,12.10
2022-09-16T17:45:29.030Z,12.00
2022-09-16T17:48:31.067Z,12.00
2022-09-16T17:51:33.969Z,12.10
2022-09-16T17:54:34.923Z,12.10
2022-09-16T17:57:35.854Z,12.00
2022-09-16T18:00:38.599Z,11.90
2022-09-16T18:03:41.893Z,11.90
2022-09-16T18:06:46.077Z,11.90
2022-09-16T18:09:46.945Z,11.90
2022-09-16T18:12:48.221Z,11.90
2022-09-16T18:15:49.188Z,11.90
2022-09-16T18:18:57.562Z,11.80
2022-09-16T18:21:58.425Z,11.80
2022-09-16T18:24:59.346Z,11.80
2022-09-16T18:28:00.186Z,11.80
2022-09-16T18:31:08.315Z,11.70
2022-09-16T18:34:09.765Z,11.70
2022-09-16T18:37:11.111Z,11.70
2022-09-16T18:40:11.926Z,11.60
2022-09-16T18:43:13.225Z,11.60
2022-09-16T18:46:20.821Z,11.60
2022-09-16T18:49:26.272Z,11.60
2022-09-16T18:52:27.011Z,11.60
2022-09-16T18:55:28.374Z,11.50
2022-09-16T18:58:29.457Z,11.50
2022-09-16T19:01:37.297Z,11.50
2022-09-16T19:04:42.258Z,11.50
2022-09-16T19:07:43.357Z,11.40
2022-09-16T19:10:44.213Z,11.40
2022-09-16T19:13:45.261Z,11.40
2022-09-16T19:16:46.494Z,11.40
2022-09-16T19:19:50.881Z,11.40
2022-09-16T19:22:51.831Z,11.40
2022-09-16T19:25:53.734Z,11.30
2022-09-16T19:28:54.876Z,11.40
2022-09-16T19:31:56.334Z,11.40
2022-09-16T19:34:57.601Z,11.40
2022-09-16T19:38:00.204Z,11.40
2022-09-16T19:41:03.795Z,11.40
2022-09-16T19:44:10.443Z,11.30
2022-09-16T19:47:12.086Z,11.30
2022-09-16T19:50:12.929Z,11.40
2022-09-16T19:53:13.877Z,11.40
2022-09-16T19:56:22.427Z,11.40
2022-09-16T19:59:23.620Z,11.40
2022-09-16T20:02:24.973Z,11.30
2022-09-16T20:05:25.830Z,11.30
2022-09-16T20:08:26.571Z,11.30
2022-09-16T20:11:32.644Z,11.30
2022-09-16T20:14:34.297Z,11.30
2022-09-16T20:17:38.379Z,11.30
2022-09-16T20:20:39.534Z,11.30
2022-09-16T20:23:41.825Z,11.30
2022-09-16T20:26:42.788Z,11.30
2022-09-16T20:29:43.552Z,11.30
2022-09-16T20:32:44.269Z,11.30
2022-09-16T20:35:44.950Z,11.40
2022-09-16T20:38:47.377Z,11.40
2022-09-16T20:41:51.783Z,11.40
2022-09-16T20:44:52.806Z,11.40
2022-09-16T20:47:53.947Z,11.40
2022-09-16T20:50:54.688Z,11.30
2022-09-16T20:54:09.835Z,11.30
2022-09-16T20:57:11.060Z,11.30
2022-09-16T21:00:12.569Z,11.20
2022-09-16T21:03:14.352Z,11.10
2022-09-16T21:06:16.102Z,11.10
2022-09-16T21:09:19.301Z,11.10
2022-09-16T21:12:20.476Z,11.10
2022-09-16T21:15:21.817Z,11.10
2022-09-16T21:18:22.950Z,11.00
2022-09-16T21:21:25.614Z,10.90
2022-09-16T21:24:26.876Z,10.90
2022-09-16T21:27:31.475Z,10.90
2022-09-16T21:30:32.472Z,10.90
2022-09-16T21:33:36.545Z,10.90
2022-09-16T21:36:39.997Z,10.80
2022-09-16T21:39:41.170Z,10.80
2022-09-16T21:42:42.267Z,10.80
2022-09-16T21:45:44.848Z,10.80
2022-09-16T21:48:47.739Z,10.80
2022-09-16T21:51:49.727Z,10.80
2022-09-16T21:54:50.418Z,10.70
2022-09-16T21:57:51.105Z,10.80
2022-09-16T22:00:51.850Z,10.70
2022-09-16T22:04:00.270Z,10.60
2022-09-16T22:07:01.388Z,10.60
2022-09-16T22:10:02.097Z,10.50
2022-09-16T22:13:04.559Z,10.40
2022-09-16T22:16:07.527Z,10.40
2022-09-16T22:19:13.525Z,10.40
2022-09-16T22:22:14.575Z,10.30
2022-09-16T22:25:15.388Z,10.30
2022-09-16T22:28:16.123Z,10.30
2022-09-16T22:31:22.301Z,10.20
2022-09-16T22:34:23.230Z,10.20
2022-09-16T22:37:23.979Z,10.30
2022-09-16T22:40:25.232Z,10.30
2022-09-16T22:43:26.330Z,10.20
2022-09-16T22:46:34.043Z,10.10
2022-09-16T22:49:34.815Z,10.20
2022-09-16T22:52:36.254Z,10.10
2022-09-16T22:55:37.196Z,10.10
2022-09-16T22:58:38.336Z,10.10
2022-09-16T23:01:40.427Z,10.10
2022-09-16T23:04:41.766Z,10.10
2022-09-16T23:07:43.207Z,10.10
2022-09-16T23:10:43.923Z,10.10
2022-09-16T23:13:50.410Z,10.10
2022-09-16T23:16:52.187Z,10.10
2022-09-16T23:19:53.011Z,10.10
2022-09-16T23:22:54.167Z,10.10
2022-09-16T23:25:55.780Z,10.10
2022-09-16T23:29:00.089Z,10.10
2022-09-16T23:32:03.415Z,10.00
2022-09-16T23:35:04.527Z,9.90
2022-09-16T23:38:05.502Z,10.00
2022-09-16T23:41:17.690Z,10.00
2022-09-16T23:44:19.105Z,9.90
2022-09-16T23:47:20.324Z,9.90
2022-09-16T23:50:22.217Z,9.80
2022-09-16T23:53:23.331Z,9.80
2022-09-16T23:56:25.567Z,9.80
2022-09-16T23:59:27.234Z,9.80
